Juneau, WI (53039)

5:31 AM CDT on September 29, 2016 (GMT -0500)
Dodge County | | Change Station

Elev 935 ft 43.43 °N, 88.70 °W | Updated 16 minutes ago

Overcast
Overcast
52 °F
Feels Like 52 °F
N
16
Wind Variable Wind from North
Gusts 20 mph

Today
High -- | Low -- °F
--% Chance of Precip.
Yesterday
High -- | Low -- °F
Precip. -- in
Pressure 30.26 in
Visibility 10.0 miles
Clouds Overcast 800 ft
Dew Point 51 °F
Humidity 94%
Rainfall 0.00 in
Snow Depth Not available.
6:50 AM 6:38 PM
Waning Crescent, 2% visible
METAR KUNU 291015Z AUTO 36014G17KT 10SM OVC008 11/11 A3026 RMK AO2 T01140105
Pressure 30.26 in
Visibility 10.0 miles
Clouds Overcast 800 ft
Dew Point 51 °F
Humidity 94%
Rainfall 0.00 in
Snow Depth Not available.
6:50 AM 6:38 PM
Waning Crescent, 2% visible
METAR KUNU 291015Z AUTO 36014G17KT 10SM OVC008 11/11 A3026 RMK AO2 T01140105

10-Day Weather Forecast

Almanac

Astronomy

Sep. 29, 2016 Rise Set
Actual Time
Civil Twilight
Nautical Twilight
Astronomical Twilight
Moon
Length of Visible Light
Length of Day
Tomorrow will be .
, % of the Moon is Illuminated

Today's Extremes

State Highs State Lows

Community

WunderPhotos

Upload Photos

1,942,460 photos uploaded!

WunderBlog® & News

Nearby

Air Quality

  Air Quality AQ Index Pollutant
Not available.

Snow Depth

Station Depth Elevation

Earthquake Activity

City Distance Mag. Time & Date
Minimum magnitude displayed is 2.5.

Coastal Water Temperatures

Place Temperature

Stations

Nearby Weather Stations

Station Location Temp. Windchill Dew Point Humidity Wind Precip. Elev Updated Type
                   

Watches & Warnings

There are currently no watches in effect.